Time;durP1;ratioP1;P1;durP2;ratioP2;P2;SDS_P1;SDS_P2;PMS_P1;PMS_P2;Temp;Humidity;BMP_temperature;BMP_pressure;BME280_temperature;BME280_humidity;BME280_pressure;Samples;Min_cycle;Max_cycle;Signal;HPM_P1;HPM_P2
2021/03/23 00:01:02;;;;;;;2.2;2;;;7.7;99.9;;;;;;;;;
2021/03/23 00:02:02;;;;;;;2.4;1.93;;;7.7;99.9;;;;;;;;;
2021/03/23 00:03:02;;;;;;;3.7;1.97;;;7.7;99.9;;;;;;;;;
2021/03/23 00:03:17;;;;;;;3.43;1.93;;;7.7;99.9;;;;;;;;;
2021/03/23 00:04:02;;;;;;;3.43;1.93;;;7.7;99.9;;;;;;;;;
2021/03/23 00:04:19;;;;;;;2.67;1.9;;;7.8;99.9;;;;;;;;;
2021/03/23 00:05:02;;;;;;;2.67;1.9;;;7.8;99.9;;;;;;;;;
2021/03/23 00:05:15;;;;;;;2.67;1.9;;;7.8;99.9;;;;;;;;;
2021/03/23 00:05:36;;;;;;;3.07;1.97;;;7.9;99.9;;;;;;;;;
2021/03/23 00:06:02;;;;;;;3.07;1.97;;;7.9;99.9;;;;;;;;;
2021/03/23 00:06:17;;;;;;;3.07;1.97;;;7.9;99.9;;;;;;;;;
2021/03/23 00:06:32;;;;;;;3.2;1.97;;;7.9;99.9;;;;;;;;;
2021/03/23 00:07:02;;;;;;;3.2;1.97;;;7.9;99.9;;;;;;;;;
2021/03/23 00:07:18;;;;;;;3.2;1.97;;;7.9;99.9;;;;;;;;;
2021/03/23 00:07:28;;;;;;;2.43;2.1;;;8;99.9;;;;;;;;;
2021/03/23 00:07:49;;;;;;;2.43;2.1;;;8;99.9;;;;;;;;;
2021/03/23 00:08:02;;;;;;;2.43;2.1;;;8;99.9;;;;;;;;;
2021/03/23 00:08:14;;;;;;;2.43;2.1;;;8;99.9;;;;;;;;;
2021/03/23 00:08:30;;;;;;;2.3;2.1;;;8;99.9;;;;;;;;;
2021/03/23 00:08:45;;;;;;;2.3;2.1;;;8;99.9;;;;;;;;;
2021/03/23 00:09:02;;;;;;;2.3;2.1;;;8;99.9;;;;;;;;;
2021/03/23 00:09:16;;;;;;;2.3;2.1;;;8;99.9;;;;;;;;;
2021/03/23 00:09:31;;;;;;;2.73;2.1;;;8;99.9;;;;;;;;;
2021/03/23 00:09:41;;;;;;;2.73;2.1;;;8;99.9;;;;;;;;;
2021/03/23 00:10:02;;;;;;;2.73;2.1;;;8;99.9;;;;;;;;;
2021/03/23 00:10:02;;;;;;;2.73;2.1;;;8;99.9;;;;;;;;;
2021/03/23 00:10:17;;;;;;;2.73;2.1;;;8;99.9;;;;;;;;;
2021/03/23 00:10:38;;;;;;;2.77;2.27;;;8;99.9;;;;;;;;;
2021/03/23 00:10:43;;;;;;;2.77;2.27;;;8;99.9;;;;;;;;;
2021/03/23 00:10:58;;;;;;;2.77;2.27;;;8;99.9;;;;;;;;;
2021/03/23 00:11:02;;;;;;;2.77;2.27;;;8;99.9;;;;;;;;;
2021/03/23 00:11:19;;;;;;;2.77;2.27;;;8;99.9;;;;;;;;;
2021/03/23 00:11:29;;;;;;;3.17;2.2;;;7.9;99.9;;;;;;;;;
2021/03/23 00:11:44;;;;;;;3.17;2.2;;;7.9;99.9;;;;;;;;;
2021/03/23 00:11:54;;;;;;;3.17;2.2;;;7.9;99.9;;;;;;;;;
2021/03/23 00:12:02;;;;;;;3.17;2.2;;;7.9;99.9;;;;;;;;;
2021/03/23 00:12:15;;;;;;;3.17;2.2;;;7.9;99.9;;;;;;;;;
2021/03/23 00:12:15;;;;;;;3.17;2.2;;;7.9;99.9;;;;;;;;;
2021/03/23 00:12:30;;;;;;;2.73;2;;;7.8;99.9;;;;;;;;;
2021/03/23 00:12:51;;;;;;;2.73;2;;;7.8;99.9;;;;;;;;;
2021/03/23 00:12:56;;;;;;;2.73;2;;;7.8;99.9;;;;;;;;;
2021/03/23 00:13:02;;;;;;;2.73;2;;;7.8;99.9;;;;;;;;;
2021/03/23 00:13:11;;;;;;;2.73;2;;;7.8;99.9;;;;;;;;;
2021/03/23 00:13:17;;;;;;;2.73;2;;;7.8;99.9;;;;;;;;;
2021/03/23 00:13:32;;;;;;;4.13;2;;;7.9;99.9;;;;;;;;;
2021/03/23 00:13:42;;;;;;;4.13;2;;;7.9;99.9;;;;;;;;;
2021/03/23 00:13:57;;;;;;;4.13;2;;;7.9;99.9;;;;;;;;;
2021/03/23 00:14:02;;;;;;;4.13;2;;;7.9;99.9;;;;;;;;;
2021/03/23 00:14:08;;;;;;;4.13;2;;;7.9;99.9;;;;;;;;;
2021/03/23 00:14:13;;;;;;;4.13;2;;;7.9;99.9;;;;;;;;;
2021/03/23 00:14:29;;;;;;;2.1;2;;;7.9;99.9;;;;;;;;;
2021/03/23 00:14:43;;;;;;;2.1;2;;;7.9;99.9;;;;;;;;;
2021/03/23 00:15:02;;;;;;;2.1;2;;;7.9;99.9;;;;;;;;;
2021/03/23 00:15:04;;;;;;;2.1;2;;;7.9;99.9;;;;;;;;;
2021/03/23 00:15:10;;;;;;;2.1;2;;;7.9;99.9;;;;;;;;;
2021/03/23 00:15:14;;;;;;;2.1;2;;;7.9;99.9;;;;;;;;;
2021/03/23 00:15:30;;;;;;;3.1;2.4;;;7.9;99.9;;;;;;;;;
2021/03/23 00:15:45;;;;;;;3.1;2.4;;;7.9;99.9;;;;;;;;;
2021/03/23 00:15:55;;;;;;;3.1;2.4;;;7.9;99.9;;;;;;;;;
2021/03/23 00:16:02;;;;;;;3.1;2.4;;;7.9;99.9;;;;;;;;;
2021/03/23 00:16:11;;;;;;;3.1;2.4;;;7.9;99.9;;;;;;;;;
2021/03/23 00:16:16;;;;;;;3.1;2.4;;;7.9;99.9;;;;;;;;;
2021/03/23 00:16:26;;;;;;;3.27;2.33;;;7.8;99.9;;;;;;;;;
2021/03/23 00:16:41;;;;;;;3.27;2.33;;;7.8;99.9;;;;;;;;;
2021/03/23 00:16:57;;;;;;;3.27;2.33;;;7.8;99.9;;;;;;;;;
2021/03/23 00:17:01;;;;;;;3.27;2.33;;;7.8;99.9;;;;;;;;;
2021/03/23 00:17:17;;;;;;;3.27;2.33;;;7.8;99.9;;;;;;;;;
2021/03/23 00:17:17;;;;;;;3.27;2.33;;;7.8;99.9;;;;;;;;;
2021/03/23 00:17:27;;;;;;;3.03;2.27;;;7.8;99.9;;;;;;;;;
2021/03/23 00:17:43;;;;;;;3.03;2.27;;;7.8;99.9;;;;;;;;;
2021/03/23 00:17:58;;;;;;;3.03;2.27;;;7.8;99.9;;;;;;;;;
2021/03/23 00:18:02;;;;;;;3.03;2.27;;;7.8;99.9;;;;;;;;;
2021/03/23 00:18:08;;;;;;;3.03;2.27;;;7.8;99.9;;;;;;;;;
2021/03/23 00:18:13;;;;;;;3.03;2.27;;;7.8;99.9;;;;;;;;;
2021/03/23 00:18:29;;;;;;;2.4;2.2;;;7.8;99.9;;;;;;;;;
2021/03/23 00:18:39;;;;;;;2.4;2.2;;;7.8;99.9;;;;;;;;;
2021/03/23 00:18:54;;;;;;;2.4;2.2;;;7.8;99.9;;;;;;;;;
2021/03/23 00:19:01;;;;;;;2.4;2.2;;;7.8;99.9;;;;;;;;;
2021/03/23 00:19:10;;;;;;;2.4;2.2;;;7.8;99.9;;;;;;;;;
2021/03/23 00:19:15;;;;;;;2.4;2.2;;;7.8;99.9;;;;;;;;;
2021/03/23 00:19:30;;;;;;;2.57;2.23;;;7.7;99.9;;;;;;;;;
2021/03/23 00:19:40;;;;;;;2.57;2.23;;;7.7;99.9;;;;;;;;;
2021/03/23 00:19:56;;;;;;;2.57;2.23;;;7.7;99.9;;;;;;;;;
2021/03/23 00:20:02;;;;;;;2.57;2.23;;;7.7;99.9;;;;;;;;;
2021/03/23 00:20:11;;;;;;;2.57;2.23;;;7.7;99.9;;;;;;;;;
2021/03/23 00:20:16;;;;;;;2.57;2.23;;;7.7;99.9;;;;;;;;;
2021/03/23 00:20:27;;;;;;;3.4;2.1;;;7.8;99.9;;;;;;;;;
2021/03/23 00:20:42;;;;;;;3.4;2.1;;;7.8;99.9;;;;;;;;;
2021/03/23 00:20:52;;;;;;;3.4;2.1;;;7.8;99.9;;;;;;;;;
2021/03/23 00:21:02;;;;;;;3.4;2.1;;;7.8;99.9;;;;;;;;;
2021/03/23 00:21:08;;;;;;;3.4;2.1;;;7.8;99.9;;;;;;;;;
2021/03/23 00:21:13;;;;;;;3.4;2.1;;;7.8;99.9;;;;;;;;;
2021/03/23 00:21:28;;;;;;;2.4;2.2;;;7.8;99.9;;;;;;;;;
2021/03/23 00:21:43;;;;;;;2.4;2.2;;;7.8;99.9;;;;;;;;;
2021/03/23 00:21:54;;;;;;;2.4;2.2;;;7.8;99.9;;;;;;;;;
2021/03/23 00:22:01;;;;;;;2.4;2.2;;;7.8;99.9;;;;;;;;;
2021/03/23 00:22:09;;;;;;;2.4;2.2;;;7.8;99.9;;;;;;;;;
2021/03/23 00:22:14;;;;;;;2.4;2.2;;;7.8;99.9;;;;;;;;;
2021/03/23 00:22:29;;;;;;;2.47;2.27;;;7.8;99.9;;;;;;;;;
2021/03/23 00:22:40;;;;;;;2.47;2.27;;;7.8;99.9;;;;;;;;;
2021/03/23 00:22:55;;;;;;;2.47;2.27;;;7.8;99.9;;;;;;;;;
2021/03/23 00:23:02;;;;;;;2.47;2.27;;;7.8;99.9;;;;;;;;;
2021/03/23 00:23:05;;;;;;;2.47;2.27;;;7.8;99.9;;;;;;;;;
2021/03/23 00:23:16;;;;;;;2.47;2.27;;;7.8;99.9;;;;;;;;;
2021/03/23 00:23:26;;;;;;;2.47;1.97;;;7.9;99.9;;;;;;;;;
2021/03/23 00:23:41;;;;;;;2.47;1.97;;;7.9;99.9;;;;;;;;;
2021/03/23 00:23:57;;;;;;;2.47;1.97;;;7.9;99.9;;;;;;;;;
2021/03/23 00:24:02;;;;;;;2.47;1.97;;;7.9;99.9;;;;;;;;;
2021/03/23 00:24:07;;;;;;;2.47;1.97;;;7.9;99.9;;;;;;;;;
2021/03/23 00:24:12;;;;;;;2.47;1.97;;;7.9;99.9;;;;;;;;;
2021/03/23 00:24:27;;;;;;;2.3;1.73;;;7.9;99.9;;;;;;;;;
2021/03/23 00:24:43;;;;;;;2.3;1.73;;;7.9;99.9;;;;;;;;;
2021/03/23 00:24:53;;;;;;;2.3;1.73;;;7.9;99.9;;;;;;;;;
2021/03/23 00:25:02;;;;;;;2.3;1.73;;;7.9;99.9;;;;;;;;;
2021/03/23 00:25:08;;;;;;;2.3;1.73;;;7.9;99.9;;;;;;;;;
2021/03/23 00:25:13;;;;;;;2.3;1.73;;;7.9;99.9;;;;;;;;;
2021/03/23 00:25:29;;;;;;;3.37;2.1;;;7.9;99.9;;;;;;;;;
2021/03/23 00:25:39;;;;;;;3.37;2.1;;;7.9;99.9;;;;;;;;;
2021/03/23 00:25:54;;;;;;;3.37;2.1;;;7.9;99.9;;;;;;;;;
2021/03/23 00:26:02;;;;;;;3.37;2.1;;;7.9;99.9;;;;;;;;;
2021/03/23 00:26:10;;;;;;;3.37;2.1;;;7.9;99.9;;;;;;;;;
2021/03/23 00:26:15;;;;;;;3.37;2.1;;;7.9;99.9;;;;;;;;;
2021/03/23 00:26:25;;;;;;;2.7;2.1;;;8;99.9;;;;;;;;;
2021/03/23 00:26:40;;;;;;;2.7;2.1;;;8;99.9;;;;;;;;;
2021/03/23 00:26:56;;;;;;;2.7;2.1;;;8;99.9;;;;;;;;;
2021/03/23 00:27:01;;;;;;;2.7;2.1;;;8;99.9;;;;;;;;;
2021/03/23 00:27:06;;;;;;;2.7;2.1;;;8;99.9;;;;;;;;;
2021/03/23 00:27:16;;;;;;;2.7;2.1;;;8;99.9;;;;;;;;;
2021/03/23 00:27:26;;;;;;;4.1;2.2;;;8;99.9;;;;;;;;;
2021/03/23 00:27:42;;;;;;;4.1;2.2;;;8;99.9;;;;;;;;;
2021/03/23 00:27:52;;;;;;;4.1;2.2;;;8;99.9;;;;;;;;;
2021/03/23 00:28:02;;;;;;;4.1;2.2;;;8;99.9;;;;;;;;;
2021/03/23 00:28:07;;;;;;;4.1;2.2;;;8;99.9;;;;;;;;;
2021/03/23 00:28:13;;;;;;;4.1;2.2;;;8;99.9;;;;;;;;;
2021/03/23 00:28:28;;;;;;;2.33;1.93;;;8;99.9;;;;;;;;;
2021/03/23 00:28:39;;;;;;;2.33;1.93;;;8;99.9;;;;;;;;;
2021/03/23 00:28:54;;;;;;;2.33;1.93;;;8;99.9;;;;;;;;;
2021/03/23 00:29:02;;;;;;;2.33;1.93;;;8;99.9;;;;;;;;;
2021/03/23 00:29:11;;;;;;;2.33;1.93;;;8;99.9;;;;;;;;;
2021/03/23 00:29:16;;;;;;;2.33;1.93;;;8;99.9;;;;;;;;;
2021/03/23 00:29:29;;;;;;;3;2;;;7.9;99.9;;;;;;;;;
2021/03/23 00:29:40;;;;;;;3;2;;;7.9;99.9;;;;;;;;;
2021/03/23 00:29:55;;;;;;;3;2;;;7.9;99.9;;;;;;;;;
2021/03/23 00:30:02;;;;;;;3;2;;;7.9;99.9;;;;;;;;;
2021/03/23 00:30:05;;;;;;;3;2;;;7.9;99.9;;;;;;;;;
2021/03/23 00:30:15;;;;;;;3;2;;;7.9;99.9;;;;;;;;;
2021/03/23 00:30:26;;;;;;;3.87;2.37;;;8;99.9;;;;;;;;;
2021/03/23 00:30:41;;;;;;;3.87;2.37;;;8;99.9;;;;;;;;;
2021/03/23 00:30:51;;;;;;;3.87;2.37;;;8;99.9;;;;;;;;;
2021/03/23 00:31:02;;;;;;;3.87;2.37;;;8;99.9;;;;;;;;;
2021/03/23 00:31:07;;;;;;;3.87;2.37;;;8;99.9;;;;;;;;;
2021/03/23 00:31:17;;;;;;;3.87;2.37;;;8;99.9;;;;;;;;;
2021/03/23 00:31:27;;;;;;;2.3;2.1;;;8;99.9;;;;;;;;;
2021/03/23 00:31:43;;;;;;;2.3;2.1;;;8;99.9;;;;;;;;;
2021/03/23 00:31:53;;;;;;;2.3;2.1;;;8;99.9;;;;;;;;;
2021/03/23 00:32:01;;;;;;;2.3;2.1;;;8;99.9;;;;;;;;;
2021/03/23 00:32:08;;;;;;;2.3;2.1;;;8;99.9;;;;;;;;;
2021/03/23 00:32:13;;;;;;;2.3;2.1;;;8;99.9;;;;;;;;;
2021/03/23 00:32:28;;;;;;;2.2;2;;;8;99.9;;;;;;;;;
2021/03/23 00:32:39;;;;;;;2.2;2;;;8;99.9;;;;;;;;;
2021/03/23 00:32:54;;;;;;;2.2;2;;;8;99.9;;;;;;;;;
2021/03/23 00:33:02;;;;;;;2.2;2;;;8;99.9;;;;;;;;;
2021/03/23 00:33:04;;;;;;;2.2;2;;;8;99.9;;;;;;;;;
2021/03/23 00:33:15;;;;;;;2.2;2;;;8;99.9;;;;;;;;;
2021/03/23 00:33:30;;;;;;;2.53;2.13;;;8;99.9;;;;;;;;;
2021/03/23 00:33:40;;;;;;;2.53;2.13;;;8;99.9;;;;;;;;;
2021/03/23 00:33:56;;;;;;;2.53;2.13;;;8;99.9;;;;;;;;;
2021/03/23 00:34:01;;;;;;;2.53;2.13;;;8;99.9;;;;;;;;;
2021/03/23 00:34:08;;;;;;;2.53;2.13;;;8;99.9;;;;;;;;;
2021/03/23 00:34:16;;;;;;;2.53;2.13;;;8;99.9;;;;;;;;;
2021/03/23 00:34:26;;;;;;;2.47;2.23;;;8;99.9;;;;;;;;;
2021/03/23 00:34:42;;;;;;;2.47;2.23;;;8;99.9;;;;;;;;;
2021/03/23 00:34:52;;;;;;;2.47;2.23;;;8;99.9;;;;;;;;;
2021/03/23 00:35:02;;;;;;;2.47;2.23;;;8;99.9;;;;;;;;;
2021/03/23 00:35:07;;;;;;;2.47;2.23;;;8;99.9;;;;;;;;;
2021/03/23 00:35:12;;;;;;;2.47;2.23;;;8;99.9;;;;;;;;;
2021/03/23 00:35:28;;;;;;;2.7;2.3;;;8;99.9;;;;;;;;;
2021/03/23 00:35:43;;;;;;;2.7;2.3;;;8;99.9;;;;;;;;;
2021/03/23 00:35:53;;;;;;;2.7;2.3;;;8;99.9;;;;;;;;;
2021/03/23 00:36:02;;;;;;;2.7;2.3;;;8;99.9;;;;;;;;;
2021/03/23 00:36:09;;;;;;;2.7;2.3;;;8;99.9;;;;;;;;;
2021/03/23 00:36:14;;;;;;;2.7;2.3;;;8;99.9;;;;;;;;;
2021/03/23 00:36:29;;;;;;;2.5;2;;;8;99.9;;;;;;;;;
2021/03/23 00:36:39;;;;;;;2.5;2;;;8;99.9;;;;;;;;;
2021/03/23 00:36:55;;;;;;;2.5;2;;;8;99.9;;;;;;;;;
2021/03/23 00:37:02;;;;;;;2.5;2;;;8;99.9;;;;;;;;;
2021/03/23 00:37:05;;;;;;;2.5;2;;;8;99.9;;;;;;;;;
2021/03/23 00:37:15;;;;;;;2.5;2;;;8;99.9;;;;;;;;;
2021/03/23 00:37:25;;;;;;;2.5;2;;;8;99.9;;;;;;;;;
2021/03/23 00:37:41;;;;;;;2.93;1.97;;;8;99.9;;;;;;;;;
2021/03/23 00:37:56;;;;;;;2.93;1.97;;;8;99.9;;;;;;;;;
2021/03/23 00:38:02;;;;;;;2.93;1.97;;;8;99.9;;;;;;;;;
2021/03/23 00:38:06;;;;;;;2.93;1.97;;;8;99.9;;;;;;;;;
2021/03/23 00:38:17;;;;;;;2.93;1.97;;;8;99.9;;;;;;;;;
2021/03/23 00:38:27;;;;;;;2.93;1.97;;;8;99.9;;;;;;;;;
2021/03/23 00:38:42;;;;;;;2.13;1.9;;;8.1;99.9;;;;;;;;;
2021/03/23 00:38:52;;;;;;;2.13;1.9;;;8.1;99.9;;;;;;;;;
2021/03/23 00:39:01;;;;;;;2.13;1.9;;;8.1;99.9;;;;;;;;;
2021/03/23 00:39:08;;;;;;;2.13;1.9;;;8.1;99.9;;;;;;;;;
2021/03/23 00:39:13;;;;;;;2.13;1.9;;;8.1;99.9;;;;;;;;;
2021/03/23 00:39:28;;;;;;;3.57;2.03;;;8.1;99.9;;;;;;;;;
2021/03/23 00:39:39;;;;;;;3.57;2.03;;;8.1;99.9;;;;;;;;;
2021/03/23 00:39:54;;;;;;;3.57;2.03;;;8.1;99.9;;;;;;;;;
2021/03/23 00:40:02;;;;;;;3.57;2.03;;;8.1;99.9;;;;;;;;;
2021/03/23 00:40:09;;;;;;;3.57;2.03;;;8.1;99.9;;;;;;;;;
2021/03/23 00:40:15;;;;;;;3.57;2.03;;;8.1;99.9;;;;;;;;;
2021/03/23 00:40:30;;;;;;;3.6;2.63;;;8.2;99.9;;;;;;;;;
2021/03/23 00:40:40;;;;;;;3.6;2.63;;;8.2;99.9;;;;;;;;;
2021/03/23 00:40:55;;;;;;;3.6;2.63;;;8.2;99.9;;;;;;;;;
2021/03/23 00:41:02;;;;;;;3.6;2.63;;;8.2;99.9;;;;;;;;;
2021/03/23 00:41:06;;;;;;;3.6;2.63;;;8.2;99.9;;;;;;;;;
2021/03/23 00:41:16;;;;;;;3.6;2.63;;;8.2;99.9;;;;;;;;;
2021/03/23 00:41:26;;;;;;;3.6;2.63;;;8.2;99.9;;;;;;;;;
2021/03/23 00:41:41;;;;;;;2.83;2.43;;;8.2;99.9;;;;;;;;;
2021/03/23 00:41:52;;;;;;;2.83;2.43;;;8.2;99.9;;;;;;;;;
2021/03/23 00:42:01;;;;;;;2.83;2.43;;;8.2;99.9;;;;;;;;;
2021/03/23 00:42:07;;;;;;;2.83;2.43;;;8.2;99.9;;;;;;;;;
2021/03/23 00:42:17;;;;;;;2.83;2.43;;;8.2;99.9;;;;;;;;;
2021/03/23 00:42:27;;;;;;;2.83;2.43;;;8.2;99.9;;;;;;;;;
2021/03/23 00:42:43;;;;;;;4.03;2.28;;;8.2;99.9;;;;;;;;;
2021/03/23 00:42:53;;;;;;;4.03;2.28;;;8.2;99.9;;;;;;;;;
2021/03/23 00:43:02;;;;;;;4.03;2.28;;;8.2;99.9;;;;;;;;;
2021/03/23 00:43:09;;;;;;;4.03;2.28;;;8.2;99.9;;;;;;;;;
2021/03/23 00:43:14;;;;;;;4.03;2.28;;;8.2;99.9;;;;;;;;;
2021/03/23 00:43:29;;;;;;;2.73;2.4;;;8.1;99.9;;;;;;;;;
2021/03/23 00:43:39;;;;;;;2.73;2.4;;;8.1;99.9;;;;;;;;;
2021/03/23 00:43:55;;;;;;;2.73;2.4;;;8.1;99.9;;;;;;;;;
2021/03/23 00:44:01;;;;;;;2.73;2.4;;;8.1;99.9;;;;;;;;;
2021/03/23 00:44:05;;;;;;;2.73;2.4;;;8.1;99.9;;;;;;;;;
2021/03/23 00:44:15;;;;;;;2.73;2.4;;;8.1;99.9;;;;;;;;;
2021/03/23 00:44:30;;;;;;;4.97;2.4;;;8.1;99.9;;;;;;;;;
2021/03/23 00:44:41;;;;;;;4.97;2.4;;;8.1;99.9;;;;;;;;;
2021/03/23 00:44:56;;;;;;;4.97;2.4;;;8.1;99.9;;;;;;;;;
2021/03/23 00:45:02;;;;;;;4.97;2.4;;;8.1;99.9;;;;;;;;;
2021/03/23 00:45:06;;;;;;;4.97;2.4;;;8.1;99.9;;;;;;;;;
2021/03/23 00:45:16;;;;;;;4.97;2.4;;;8.1;99.9;;;;;;;;;
2021/03/23 00:45:27;;;;;;;4.97;2.4;;;8.1;99.9;;;;;;;;;
2021/03/23 00:45:42;;;;;;;4.53;2.4;;;8.1;99.9;;;;;;;;;
2021/03/23 00:45:52;;;;;;;4.53;2.4;;;8.1;99.9;;;;;;;;;
2021/03/23 00:46:02;;;;;;;4.53;2.4;;;8.1;99.9;;;;;;;;;
2021/03/23 00:46:08;;;;;;;4.53;2.4;;;8.1;99.9;;;;;;;;;
2021/03/23 00:46:13;;;;;;;4.53;2.4;;;8.1;99.9;;;;;;;;;
2021/03/23 00:46:28;;;;;;;4.53;2.4;;;8.1;99.9;;;;;;;;;
2021/03/23 00:46:44;;;;;;;2.73;2.5;;;8.1;99.9;;;;;;;;;
2021/03/23 00:46:54;;;;;;;2.73;2.5;;;8.1;99.9;;;;;;;;;
2021/03/23 00:47:01;;;;;;;2.73;2.5;;;8.1;99.9;;;;;;;;;
2021/03/23 00:47:09;;;;;;;2.73;2.5;;;8.1;99.9;;;;;;;;;
2021/03/23 00:47:15;;;;;;;2.73;2.5;;;8.1;99.9;;;;;;;;;
2021/03/23 00:47:30;;;;;;;2.73;2.5;;;8.1;99.9;;;;;;;;;
2021/03/23 00:47:40;;;;;;;3.73;2.4;;;8.2;99.9;;;;;;;;;
2021/03/23 00:47:55;;;;;;;3.73;2.4;;;8.2;99.9;;;;;;;;;
2021/03/23 00:48:02;;;;;;;3.73;2.4;;;8.2;99.9;;;;;;;;;
2021/03/23 00:48:05;;;;;;;3.73;2.4;;;8.2;99.9;;;;;;;;;
2021/03/23 00:48:16;;;;;;;3.73;2.4;;;8.2;99.9;;;;;;;;;
2021/03/23 00:48:26;;;;;;;3.73;2.4;;;8.2;99.9;;;;;;;;;
2021/03/23 00:48:41;;;;;;;3.03;2.2;;;8.2;99.9;;;;;;;;;
2021/03/23 00:48:57;;;;;;;3.03;2.2;;;8.2;99.9;;;;;;;;;
2021/03/23 00:49:01;;;;;;;3.03;2.2;;;8.2;99.9;;;;;;;;;
2021/03/23 00:49:07;;;;;;;3.03;2.2;;;8.2;99.9;;;;;;;;;
2021/03/23 00:49:12;;;;;;;3.03;2.2;;;8.2;99.9;;;;;;;;;
2021/03/23 00:49:27;;;;;;;3.03;2.2;;;8.2;99.9;;;;;;;;;
2021/03/23 00:49:43;;;;;;;3.6;2.17;;;8.1;99.9;;;;;;;;;
2021/03/23 00:49:53;;;;;;;3.6;2.17;;;8.1;99.9;;;;;;;;;
2021/03/23 00:50:02;;;;;;;3.6;2.17;;;8.1;99.9;;;;;;;;;
2021/03/23 00:50:08;;;;;;;3.6;2.17;;;8.1;99.9;;;;;;;;;
2021/03/23 00:50:13;;;;;;;3.6;2.17;;;8.1;99.9;;;;;;;;;
2021/03/23 00:50:29;;;;;;;3.6;2.17;;;8.1;99.9;;;;;;;;;
2021/03/23 00:50:40;;;;;;;2.93;2.1;;;8.2;99.9;;;;;;;;;
2021/03/23 00:50:54;;;;;;;2.93;2.1;;;8.2;99.9;;;;;;;;;
2021/03/23 00:51:02;;;;;;;2.93;2.1;;;8.2;99.9;;;;;;;;;
2021/03/23 00:51:10;;;;;;;2.93;2.1;;;8.2;99.9;;;;;;;;;
2021/03/23 00:51:15;;;;;;;2.93;2.1;;;8.2;99.9;;;;;;;;;
2021/03/23 00:51:25;;;;;;;2.93;2.1;;;8.2;99.9;;;;;;;;;
2021/03/23 00:51:40;;;;;;;2.73;2.4;;;8.2;99.9;;;;;;;;;
2021/03/23 00:51:56;;;;;;;2.73;2.4;;;8.2;99.9;;;;;;;;;
2021/03/23 00:52:02;;;;;;;2.73;2.4;;;8.2;99.9;;;;;;;;;
2021/03/23 00:52:06;;;;;;;2.73;2.4;;;8.2;99.9;;;;;;;;;
2021/03/23 00:52:16;;;;;;;2.73;2.4;;;8.2;99.9;;;;;;;;;
2021/03/23 00:52:27;;;;;;;2.73;2.4;;;8.2;99.9;;;;;;;;;
2021/03/23 00:52:42;;;;;;;2.83;2.13;;;8.2;99.9;;;;;;;;;
2021/03/23 00:52:52;;;;;;;2.83;2.13;;;8.2;99.9;;;;;;;;;
2021/03/23 00:53:02;;;;;;;2.83;2.13;;;8.2;99.9;;;;;;;;;
2021/03/23 00:53:07;;;;;;;2.83;2.13;;;8.2;99.9;;;;;;;;;
2021/03/23 00:53:13;;;;;;;2.83;2.13;;;8.2;99.9;;;;;;;;;
2021/03/23 00:53:28;;;;;;;2.83;2.13;;;8.2;99.9;;;;;;;;;
2021/03/23 00:53:38;;;;;;;2.07;1.87;;;8.2;99.9;;;;;;;;;
2021/03/23 00:53:54;;;;;;;2.07;1.87;;;8.2;99.9;;;;;;;;;
2021/03/23 00:54:01;;;;;;;2.07;1.87;;;8.2;99.9;;;;;;;;;
2021/03/23 00:54:09;;;;;;;2.07;1.87;;;8.2;99.9;;;;;;;;;
2021/03/23 00:54:14;;;;;;;2.07;1.87;;;8.2;99.9;;;;;;;;;
2021/03/23 00:54:29;;;;;;;2.07;1.87;;;8.2;99.9;;;;;;;;;
2021/03/23 00:54:40;;;;;;;3.7;2.63;;;8.2;99.9;;;;;;;;;
2021/03/23 00:54:55;;;;;;;3.7;2.63;;;8.2;99.9;;;;;;;;;
2021/03/23 00:55:02;;;;;;;3.7;2.63;;;8.2;99.9;;;;;;;;;
2021/03/23 00:55:05;;;;;;;3.7;2.63;;;8.2;99.9;;;;;;;;;
2021/03/23 00:55:16;;;;;;;3.7;2.63;;;8.2;99.9;;;;;;;;;
2021/03/23 00:55:26;;;;;;;3.7;2.63;;;8.2;99.9;;;;;;;;;
2021/03/23 00:55:41;;;;;;;3;2.4;;;8.2;99.9;;;;;;;;;
2021/03/23 00:55:51;;;;;;;3;2.4;;;8.2;99.9;;;;;;;;;
2021/03/23 00:56:02;;;;;;;3;2.4;;;8.2;99.9;;;;;;;;;
2021/03/23 00:56:07;;;;;;;3;2.4;;;8.2;99.9;;;;;;;;;
2021/03/23 00:56:12;;;;;;;3;2.4;;;8.2;99.9;;;;;;;;;
2021/03/23 00:56:27;;;;;;;3;2.4;;;8.2;99.9;;;;;;;;;
2021/03/23 00:56:43;;;;;;;4.27;2.73;;;8.1;99.9;;;;;;;;;
2021/03/23 00:56:53;;;;;;;4.27;2.73;;;8.1;99.9;;;;;;;;;
2021/03/23 00:57:02;;;;;;;4.27;2.73;;;8.1;99.9;;;;;;;;;
2021/03/23 00:57:08;;;;;;;4.27;2.73;;;8.1;99.9;;;;;;;;;
2021/03/23 00:57:13;;;;;;;4.27;2.73;;;8.1;99.9;;;;;;;;;
2021/03/23 00:57:29;;;;;;;4.27;2.73;;;8.1;99.9;;;;;;;;;
2021/03/23 00:57:39;;;;;;;3.93;2.63;;;8.1;99.9;;;;;;;;;
2021/03/23 00:57:54;;;;;;;3.93;2.63;;;8.1;99.9;;;;;;;;;
2021/03/23 00:58:02;;;;;;;3.93;2.63;;;8.1;99.9;;;;;;;;;
2021/03/23 00:58:04;;;;;;;3.93;2.63;;;8.1;99.9;;;;;;;;;
2021/03/23 00:58:15;;;;;;;3.93;2.63;;;8.1;99.9;;;;;;;;;
2021/03/23 00:58:25;;;;;;;3.93;2.63;;;8.1;99.9;;;;;;;;;
2021/03/23 00:58:40;;;;;;;3.63;2.4;;;8.1;99.9;;;;;;;;;
2021/03/23 00:58:56;;;;;;;3.63;2.4;;;8.1;99.9;;;;;;;;;
2021/03/23 00:59:01;;;;;;;3.63;2.4;;;8.1;99.9;;;;;;;;;
2021/03/23 00:59:06;;;;;;;3.63;2.4;;;8.1;99.9;;;;;;;;;
2021/03/23 00:59:16;;;;;;;3.63;2.4;;;8.1;99.9;;;;;;;;;
2021/03/23 00:59:26;;;;;;;3.63;2.4;;;8.1;99.9;;;;;;;;;
2021/03/23 00:59:42;;;;;;;3.22;2.5;;;8.2;99.9;;;;;;;;;
2021/03/23 00:59:52;;;;;;;3.22;2.5;;;8.2;99.9;;;;;;;;;
2021/03/23 01:00:02;;;;;;;3.22;2.5;;;8.2;99.9;;;;;;;;;
2021/03/23 01:00:07;;;;;;;3.22;2.5;;;8.2;99.9;;;;;;;;;
2021/03/23 01:00:12;;;;;;;3.22;2.5;;;8.2;99.9;;;;;;;;;
2021/03/23 01:00:28;;;;;;;3.22;2.5;;;8.2;99.9;;;;;;;;;
2021/03/23 01:00:38;;;;;;;2.8;2.15;;;8.2;99.9;;;;;;;;;
2021/03/23 01:00:53;;;;;;;2.8;2.15;;;8.2;99.9;;;;;;;;;
2021/03/23 01:01:02;;;;;;;2.8;2.15;;;8.2;99.9;;;;;;;;;
2021/03/23 01:01:09;;;;;;;2.8;2.15;;;8.2;99.9;;;;;;;;;
2021/03/23 01:01:14;;;;;;;2.8;2.15;;;8.2;99.9;;;;;;;;;
2021/03/23 01:01:29;;;;;;;2.8;2.15;;;8.2;99.9;;;;;;;;;
2021/03/23 01:01:39;;;;;;;4.55;2.7;;;8.1;99.9;;;;;;;;;
2021/03/23 01:01:55;;;;;;;4.55;2.7;;;8.1;99.9;;;;;;;;;
2021/03/23 01:02:02;;;;;;;4.55;2.7;;;8.1;99.9;;;;;;;;;
2021/03/23 01:02:05;;;;;;;4.55;2.7;;;8.1;99.9;;;;;;;;;
2021/03/23 01:02:15;;;;;;;4.55;2.7;;;8.1;99.9;;;;;;;;;
2021/03/23 01:02:27;;;;;;;4.55;2.7;;;8.1;99.9;;;;;;;;;
2021/03/23 01:02:43;;;;;;;2.8;2.5;;;8;99.9;;;;;;;;;
2021/03/23 01:02:51;;;;;;;2.8;2.5;;;8;99.9;;;;;;;;;
2021/03/23 01:03:02;;;;;;;2.8;2.5;;;8;99.9;;;;;;;;;
2021/03/23 01:03:07;;;;;;;2.8;2.5;;;8;99.9;;;;;;;;;
2021/03/23 01:03:17;;;;;;;2.8;2.5;;;8;99.9;;;;;;;;;
2021/03/23 01:03:27;;;;;;;2.8;2.5;;;8;99.9;;;;;;;;;
2021/03/23 01:03:42;;;;;;;2.88;2.53;;;8;99.9;;;;;;;;;
2021/03/23 01:03:53;;;;;;;2.88;2.53;;;8;99.9;;;;;;;;;
2021/03/23 01:04:01;;;;;;;2.88;2.53;;;8;99.9;;;;;;;;;
2021/03/23 01:04:08;;;;;;;2.88;2.53;;;8;99.9;;;;;;;;;
2021/03/23 01:04:13;;;;;;;2.88;2.53;;;8;99.9;;;;;;;;;
2021/03/23 01:04:28;;;;;;;2.88;2.53;;;8;99.9;;;;;;;;;
2021/03/23 01:04:39;;;;;;;3.6;2.3;;;8.1;99.9;;;;;;;;;
2021/03/23 01:04:54;;;;;;;3.6;2.3;;;8.1;99.9;;;;;;;;;
2021/03/23 01:05:02;;;;;;;3.6;2.3;;;8.1;99.9;;;;;;;;;
2021/03/23 01:05:04;;;;;;;3.6;2.3;;;8.1;99.9;;;;;;;;;
2021/03/23 01:05:15;;;;;;;3.6;2.3;;;8.1;99.9;;;;;;;;;
2021/03/23 01:05:30;;;;;;;3.6;2.3;;;8.1;99.9;;;;;;;;;
2021/03/23 01:05:42;;;;;;;4.17;2.6;;;8.1;99.9;;;;;;;;;
2021/03/23 01:05:56;;;;;;;4.17;2.6;;;8.1;99.9;;;;;;;;;
2021/03/23 01:06:01;;;;;;;4.17;2.6;;;8.1;99.9;;;;;;;;;
2021/03/23 01:06:06;;;;;;;4.17;2.6;;;8.1;99.9;;;;;;;;;
2021/03/23 01:06:16;;;;;;;4.17;2.6;;;8.1;99.9;;;;;;;;;
2021/03/23 01:06:26;;;;;;;4.17;2.6;;;8.1;99.9;;;;;;;;;
2021/03/23 01:06:42;;;;;;;3.23;2.53;;;8.2;99.9;;;;;;;;;
2021/03/23 01:06:52;;;;;;;3.23;2.53;;;8.2;99.9;;;;;;;;;
2021/03/23 01:07:02;;;;;;;3.23;2.53;;;8.2;99.9;;;;;;;;;
2021/03/23 01:07:07;;;;;;;3.23;2.53;;;8.2;99.9;;;;;;;;;
2021/03/23 01:07:17;;;;;;;3.23;2.53;;;8.2;99.9;;;;;;;;;
2021/03/23 01:07:28;;;;;;;3.23;2.53;;;8.2;99.9;;;;;;;;;
2021/03/23 01:07:43;;;;;;;3.4;2.42;;;8.2;99.9;;;;;;;;;
2021/03/23 01:07:53;;;;;;;3.4;2.42;;;8.2;99.9;;;;;;;;;
2021/03/23 01:08:02;;;;;;;3.4;2.42;;;8.2;99.9;;;;;;;;;
2021/03/23 01:08:09;;;;;;;3.4;2.42;;;8.2;99.9;;;;;;;;;
2021/03/23 01:08:14;;;;;;;3.4;2.42;;;8.2;99.9;;;;;;;;;
2021/03/23 01:08:29;;;;;;;3.4;2.42;;;8.2;99.9;;;;;;;;;
2021/03/23 01:08:39;;;;;;;3.07;2.4;;;8.2;99.9;;;;;;;;;
2021/03/23 01:08:55;;;;;;;3.07;2.4;;;8.2;99.9;;;;;;;;;
2021/03/23 01:09:01;;;;;;;3.07;2.4;;;8.2;99.9;;;;;;;;;
2021/03/23 01:09:05;;;;;;;3.07;2.4;;;8.2;99.9;;;;;;;;;
2021/03/23 01:09:15;;;;;;;3.07;2.4;;;8.2;99.9;;;;;;;;;
2021/03/23 01:09:31;;;;;;;3.07;2.4;;;8.2;99.9;;;;;;;;;
2021/03/23 01:09:41;;;;;;;3.53;2.5;;;8.2;99.9;;;;;;;;;
2021/03/23 01:09:56;;;;;;;3.53;2.5;;;8.2;99.9;;;;;;;;;
2021/03/23 01:10:02;;;;;;;3.53;2.5;;;8.2;99.9;;;;;;;;;
2021/03/23 01:10:06;;;;;;;3.53;2.5;;;8.2;99.9;;;;;;;;;
2021/03/23 01:10:17;;;;;;;3.53;2.5;;;8.2;99.9;;;;;;;;;
2021/03/23 01:10:27;;;;;;;3.53;2.5;;;8.2;99.9;;;;;;;;;
2021/03/23 01:10:42;;;;;;;2.88;2.33;;;8.3;99.9;;;;;;;;;
2021/03/23 01:10:53;;;;;;;2.88;2.33;;;8.3;99.9;;;;;;;;;
2021/03/23 01:11:01;;;;;;;2.88;2.33;;;8.3;99.9;;;;;;;;;
2021/03/23 01:11:08;;;;;;;2.88;2.33;;;8.3;99.9;;;;;;;;;
2021/03/23 01:11:13;;;;;;;2.88;2.33;;;8.3;99.9;;;;;;;;;
2021/03/23 01:11:28;;;;;;;2.88;2.33;;;8.3;99.9;;;;;;;;;
2021/03/23 01:11:44;;;;;;;2.65;2.4;;;8.3;99.9;;;;;;;;;
2021/03/23 01:11:54;;;;;;;2.65;2.4;;;8.3;99.9;;;;;;;;;
2021/03/23 01:12:02;;;;;;;2.65;2.4;;;8.3;99.9;;;;;;;;;
2021/03/23 01:12:09;;;;;;;2.65;2.4;;;8.3;99.9;;;;;;;;;
2021/03/23 01:12:14;;;;;;;2.65;2.4;;;8.3;99.9;;;;;;;;;
2021/03/23 01:12:30;;;;;;;2.65;2.4;;;8.3;99.9;;;;;;;;;
2021/03/23 01:12:40;;;;;;;2.92;2.47;;;8.3;99.9;;;;;;;;;
2021/03/23 01:12:55;;;;;;;2.92;2.47;;;8.3;99.9;;;;;;;;;
2021/03/23 01:13:02;;;;;;;2.92;2.47;;;8.3;99.9;;;;;;;;;
2021/03/23 01:13:06;;;;;;;2.92;2.47;;;8.3;99.9;;;;;;;;;
2021/03/23 01:13:16;;;;;;;2.92;2.47;;;8.3;99.9;;;;;;;;;
2021/03/23 01:13:26;;;;;;;2.92;2.47;;;8.3;99.9;;;;;;;;;
2021/03/23 01:13:41;;;;;;;3.1;2.37;;;8.3;99.9;;;;;;;;;
2021/03/23 01:13:57;;;;;;;3.1;2.37;;;8.3;99.9;;;;;;;;;
2021/03/23 01:14:01;;;;;;;3.1;2.37;;;8.3;99.9;;;;;;;;;
2021/03/23 01:14:07;;;;;;;3.1;2.37;;;8.3;99.9;;;;;;;;;
2021/03/23 01:14:17;;;;;;;3.1;2.37;;;8.3;99.9;;;;;;;;;
2021/03/23 01:14:27;;;;;;;3.1;2.37;;;8.3;99.9;;;;;;;;;
2021/03/23 01:14:43;;;;;;;3.03;2.38;;;8.3;99.9;;;;;;;;;
2021/03/23 01:14:53;;;;;;;3.03;2.38;;;8.3;99.9;;;;;;;;;
2021/03/23 01:15:02;;;;;;;3.03;2.38;;;8.3;99.9;;;;;;;;;
2021/03/23 01:15:08;;;;;;;3.03;2.38;;;8.3;99.9;;;;;;;;;
2021/03/23 01:15:14;;;;;;;3.03;2.38;;;8.3;99.9;;;;;;;;;
2021/03/23 01:15:29;;;;;;;3.03;2.38;;;8.3;99.9;;;;;;;;;
2021/03/23 01:15:39;;;;;;;2.9;2.1;;;8.3;99.9;;;;;;;;;
2021/03/23 01:15:55;;;;;;;2.9;2.1;;;8.3;99.9;;;;;;;;;
2021/03/23 01:16:02;;;;;;;2.9;2.1;;;8.3;99.9;;;;;;;;;
2021/03/23 01:16:10;;;;;;;2.9;2.1;;;8.3;99.9;;;;;;;;;
2021/03/23 01:16:15;;;;;;;2.9;2.1;;;8.3;99.9;;;;;;;;;
2021/03/23 01:16:30;;;;;;;2.9;2.1;;;8.3;99.9;;;;;;;;;
2021/03/23 01:16:41;;;;;;;3.67;2.3;;;8.3;99.9;;;;;;;;;
2021/03/23 01:16:56;;;;;;;3.67;2.3;;;8.3;99.9;;;;;;;;;
2021/03/23 01:17:02;;;;;;;3.67;2.3;;;8.3;99.9;;;;;;;;;
2021/03/23 01:17:06;;;;;;;3.67;2.3;;;8.3;99.9;;;;;;;;;
2021/03/23 01:17:16;;;;;;;3.67;2.3;;;8.3;99.9;;;;;;;;;
2021/03/23 01:17:27;;;;;;;3.67;2.3;;;8.3;99.9;;;;;;;;;
2021/03/23 01:17:42;;;;;;;3.03;2.33;;;8.3;99.9;;;;;;;;;
2021/03/23 01:17:52;;;;;;;3.03;2.33;;;8.3;99.9;;;;;;;;;
2021/03/23 01:18:02;;;;;;;3.03;2.33;;;8.3;99.9;;;;;;;;;
2021/03/23 01:18:08;;;;;;;3.03;2.33;;;8.3;99.9;;;;;;;;;
2021/03/23 01:18:13;;;;;;;3.03;2.33;;;8.3;99.9;;;;;;;;;
2021/03/23 01:18:28;;;;;;;3.03;2.33;;;8.3;99.9;;;;;;;;;
2021/03/23 01:18:44;;;;;;;3.1;2.3;;;8.3;99.9;;;;;;;;;
2021/03/23 01:18:54;;;;;;;3.1;2.3;;;8.3;99.9;;;;;;;;;